createdAt,value
2019-01-29T00:01:40.331Z,46.17
2019-01-29T00:04:10.049Z,40.73
2019-01-29T00:06:39.796Z,44.00
2019-01-29T00:09:10.787Z,42.30
2019-01-29T00:11:40.576Z,45.87
2019-01-29T00:14:10.208Z,41.13
2019-01-29T00:16:39.922Z,38.77
2019-01-29T00:19:09.545Z,40.30
2019-01-29T00:21:39.284Z,40.00
2019-01-29T00:24:08.881Z,40.10
2019-01-29T00:26:38.534Z,39.17
2019-01-29T00:29:08.306Z,44.73
2019-01-29T00:31:37.886Z,44.83
2019-01-29T00:34:07.491Z,50.10
2019-01-29T00:36:37.157Z,55.30
2019-01-29T00:39:09.068Z,48.50
2019-01-29T00:41:38.678Z,48.13
2019-01-29T00:44:08.335Z,53.43
2019-01-29T00:46:37.938Z,50.50
2019-01-29T00:49:07.743Z,51.43
2019-01-29T00:51:37.489Z,51.03
2019-01-29T00:54:07.264Z,52.10
2019-01-29T00:56:36.890Z,53.47
2019-01-29T00:59:06.613Z,177.57
2019-01-29T01:01:36.195Z,64.30
2019-01-29T01:04:06.356Z,53.67
2019-01-29T01:06:35.994Z,46.43
2019-01-29T01:09:08.388Z,52.13
2019-01-29T01:11:38.019Z,48.37
2019-01-29T01:14:07.912Z,51.27
2019-01-29T01:16:37.501Z,45.83
2019-01-29T01:19:07.184Z,49.60
2019-01-29T01:21:36.893Z,51.00
2019-01-29T01:24:06.675Z,49.70
2019-01-29T01:26:36.285Z,52.60
2019-01-29T01:29:06.101Z,53.40
2019-01-29T01:31:35.685Z,50.77
2019-01-29T01:34:05.293Z,47.83
2019-01-29T01:36:35.091Z,49.43
2019-01-29T01:39:07.551Z,51.70
2019-01-29T01:41:37.280Z,47.07
2019-01-29T01:44:07.051Z,46.60
2019-01-29T01:46:36.664Z,50.93
2019-01-29T01:49:06.265Z,51.43
2019-01-29T01:51:35.946Z,53.90
2019-01-29T01:54:05.890Z,53.87
2019-01-29T01:56:35.518Z,50.17
2019-01-29T01:59:05.921Z,46.43
2019-01-29T02:01:35.545Z,56.33
2019-01-29T02:04:05.293Z,45.60
2019-01-29T02:06:34.935Z,48.07
2019-01-29T02:09:06.670Z,48.80
2019-01-29T02:11:36.269Z,49.47
2019-01-29T02:14:06.289Z,47.23
2019-01-29T02:16:35.926Z,44.57
2019-01-29T02:19:05.627Z,44.40
2019-01-29T02:21:35.313Z,43.73
2019-01-29T02:24:05.012Z,41.37
2019-01-29T02:26:34.625Z,40.17
2019-01-29T02:29:04.466Z,35.60
2019-01-29T02:31:34.082Z,35.83
2019-01-29T02:34:03.879Z,40.63
2019-01-29T02:36:33.570Z,37.83
2019-01-29T02:39:04.870Z,46.00
2019-01-29T02:41:34.525Z,42.90
2019-01-29T02:44:04.164Z,45.23
2019-01-29T02:46:33.759Z,42.97
2019-01-29T02:49:03.359Z,43.80
2019-01-29T02:51:33.088Z,39.10
2019-01-29T02:54:02.820Z,43.43
2019-01-29T02:56:32.432Z,41.97
2019-01-29T02:59:02.076Z,38.30
2019-01-29T03:01:31.666Z,39.73
2019-01-29T03:04:01.302Z,39.83
2019-01-29T03:06:31.072Z,39.60
2019-01-29T03:09:00.643Z,39.03
2019-01-29T03:11:30.229Z,37.17
2019-01-29T03:13:59.956Z,37.60
2019-01-29T03:16:29.563Z,39.73
2019-01-29T03:18:59.195Z,41.97
2019-01-29T03:21:28.868Z,42.03
2019-01-29T03:23:58.466Z,38.77
2019-01-29T03:26:28.119Z,36.23
2019-01-29T03:28:57.764Z,32.90
2019-01-29T03:31:27.350Z,32.17
2019-01-29T03:33:56.978Z,33.17
2019-01-29T03:36:26.639Z,51.30
2019-01-29T03:38:56.272Z,33.13
2019-01-29T03:41:25.883Z,37.17
2019-01-29T03:43:55.549Z,35.00
2019-01-29T03:46:25.149Z,40.17
2019-01-29T03:48:54.757Z,41.70
2019-01-29T03:51:24.620Z,40.97
2019-01-29T03:53:54.213Z,42.93
2019-01-29T03:56:23.838Z,41.37
2019-01-29T03:58:53.498Z,41.20
2019-01-29T04:01:23.122Z,42.17
2019-01-29T04:03:52.804Z,43.63
2019-01-29T04:06:22.548Z,40.00
2019-01-29T04:08:52.177Z,42.50
2019-01-29T04:11:21.864Z,41.13
2019-01-29T04:13:51.545Z,43.00
2019-01-29T04:16:21.190Z,43.80
2019-01-29T04:18:50.793Z,43.07
2019-01-29T04:21:20.570Z,42.27
2019-01-29T04:23:50.177Z,43.20
2019-01-29T04:26:19.820Z,44.30
2019-01-29T04:28:49.456Z,42.13
2019-01-29T04:31:19.054Z,40.30
2019-01-29T04:33:48.699Z,36.27
2019-01-29T04:36:20.309Z,38.73
2019-01-29T04:38:50.241Z,41.00
2019-01-29T04:41:19.882Z,41.17
2019-01-29T04:43:49.619Z,42.43
2019-01-29T04:46:20.994Z,42.27
2019-01-29T04:48:50.596Z,40.03
2019-01-29T04:51:24.984Z,38.63
2019-01-29T04:53:57.851Z,39.03
2019-01-29T04:56:33.037Z,40.83
2019-01-29T04:59:02.635Z,39.67
2019-01-29T05:01:32.251Z,40.80
2019-01-29T05:04:02.048Z,39.70
2019-01-29T05:06:31.633Z,41.63
2019-01-29T05:09:01.356Z,40.37
2019-01-29T05:11:31.015Z,40.10
2019-01-29T05:14:00.605Z,40.87
2019-01-29T05:16:30.207Z,42.40
2019-01-29T05:18:59.936Z,44.33
2019-01-29T05:21:29.530Z,42.83
2019-01-29T05:24:06.623Z,44.67
2019-01-29T05:26:30.505Z,29.63
2019-01-29T05:29:00.350Z,31.63
2019-01-29T05:31:30.355Z,31.87
2019-01-29T05:34:00.076Z,33.70
2019-01-29T05:36:29.704Z,32.93
2019-01-29T05:38:59.303Z,35.83
2019-01-29T05:41:28.966Z,37.10
2019-01-29T05:43:58.572Z,47.73
2019-01-29T05:46:28.197Z,47.63
2019-01-29T05:48:57.831Z,46.43
2019-01-29T05:51:27.458Z,46.93
2019-01-29T05:53:57.032Z,48.83
2019-01-29T05:56:26.758Z,45.57
2019-01-29T05:58:56.406Z,42.80
2019-01-29T06:01:26.089Z,42.23
2019-01-29T06:04:05.636Z,44.57
2019-01-29T06:06:35.268Z,43.53
2019-01-29T06:09:07.522Z,43.60
2019-01-29T06:11:37.384Z,43.17
2019-01-29T06:14:07.317Z,41.47
2019-01-29T06:16:36.961Z,38.27
2019-01-29T06:19:07.045Z,40.93
2019-01-29T06:21:36.670Z,41.70
2019-01-29T06:24:06.524Z,38.70
2019-01-29T06:26:36.251Z,41.23
2019-01-29T06:29:08.433Z,38.33
2019-01-29T06:31:38.030Z,40.23
2019-01-29T06:34:07.692Z,37.47
2019-01-29T06:36:37.320Z,37.20
2019-01-29T06:39:10.208Z,39.50
2019-01-29T06:41:39.936Z,38.40
2019-01-29T06:44:09.563Z,41.10
2019-01-29T06:46:39.163Z,41.00
2019-01-29T06:49:08.972Z,42.37
2019-01-29T06:51:38.604Z,40.60
2019-01-29T06:54:08.200Z,41.43
2019-01-29T06:56:37.856Z,41.93
2019-01-29T06:59:07.485Z,42.17
2019-01-29T07:01:37.096Z,38.23
2019-01-29T07:04:06.902Z,37.10
2019-01-29T07:06:36.583Z,39.10
2019-01-29T07:09:09.251Z,38.70
2019-01-29T07:11:39.066Z,40.03
2019-01-29T07:14:08.804Z,40.23
2019-01-29T07:17:06.185Z,40.67
2019-01-29T07:19:39.145Z,39.70
2019-01-29T07:22:08.906Z,39.87
2019-01-29T07:24:42.964Z,42.03
2019-01-29T07:27:09.869Z,39.93
2019-01-29T07:29:39.616Z,38.20
2019-01-29T07:32:09.414Z,42.27
2019-01-29T07:34:39.343Z,41.00
2019-01-29T07:37:09.119Z,40.73
2019-01-29T07:39:38.743Z,32.53
2019-01-29T07:42:08.463Z,42.87
2019-01-29T07:44:38.306Z,42.73
2019-01-29T07:47:08.027Z,44.07
2019-01-29T07:49:37.674Z,46.53
2019-01-29T07:52:07.560Z,45.37
2019-01-29T07:54:37.337Z,43.33
2019-01-29T07:57:07.045Z,42.77
2019-01-29T07:59:36.786Z,45.53
2019-01-29T08:02:06.565Z,44.87
2019-01-29T08:04:39.233Z,44.20
2019-01-29T08:07:09.002Z,45.20
2019-01-29T08:09:38.706Z,42.70
2019-01-29T08:12:08.450Z,41.27
2019-01-29T08:14:38.176Z,39.53
2019-01-29T08:17:07.952Z,41.73
2019-01-29T08:19:37.557Z,40.40
2019-01-29T08:22:07.183Z,42.30
2019-01-29T08:24:36.824Z,41.63
2019-01-29T08:27:06.601Z,39.87
2019-01-29T08:29:36.670Z,40.90
2019-01-29T08:32:07.233Z,39.57
2019-01-29T08:34:37.145Z,41.00
2019-01-29T08:37:07.691Z,41.03
2019-01-29T08:39:37.550Z,41.37
2019-01-29T08:42:07.200Z,42.53
2019-01-29T08:44:36.839Z,34.87
2019-01-29T08:47:07.048Z,44.67
2019-01-29T08:49:37.058Z,46.17
2019-01-29T08:52:06.659Z,43.27
2019-01-29T08:54:36.335Z,38.93
2019-01-29T08:57:06.253Z,34.97
2019-01-29T08:59:37.428Z,34.63
2019-01-29T09:02:08.232Z,38.87
2019-01-29T09:04:40.190Z,36.27
2019-01-29T09:07:10.609Z,36.10
2019-01-29T09:09:40.295Z,37.87
2019-01-29T09:12:09.958Z,36.23
2019-01-29T09:14:39.590Z,37.33
2019-01-29T09:17:09.238Z,37.00
2019-01-29T09:19:38.872Z,37.70
2019-01-29T09:22:08.543Z,38.83
2019-01-29T09:24:38.204Z,36.77
2019-01-29T09:27:07.875Z,39.53
2019-01-29T09:29:37.504Z,40.90
2019-01-29T09:32:07.185Z,41.00
2019-01-29T09:34:36.813Z,40.07
2019-01-29T09:37:06.406Z,39.57
2019-01-29T09:39:36.064Z,39.53
2019-01-29T09:42:09.044Z,38.70
2019-01-29T09:44:38.926Z,38.83
2019-01-29T09:47:09.396Z,38.93
2019-01-29T09:49:39.079Z,38.53
2019-01-29T09:52:08.904Z,39.30
2019-01-29T09:54:38.569Z,38.77
2019-01-29T09:57:08.274Z,37.93
2019-01-29T09:59:37.899Z,35.63
2019-01-29T10:02:07.646Z,37.57
2019-01-29T10:04:37.384Z,39.73
2019-01-29T10:07:07.200Z,38.90
2019-01-29T10:09:36.854Z,38.83
2019-01-29T10:12:06.441Z,39.33
2019-01-29T10:14:36.038Z,39.70
2019-01-29T10:17:05.853Z,40.87
2019-01-29T10:19:35.516Z,39.63
2019-01-29T10:22:05.281Z,40.70
2019-01-29T10:24:34.891Z,40.87
2019-01-29T10:27:04.759Z,40.77
2019-01-29T10:29:34.423Z,41.37
2019-01-29T10:32:04.263Z,39.97
2019-01-29T10:34:33.876Z,40.43
2019-01-29T10:37:03.780Z,39.17
2019-01-29T10:39:33.509Z,38.67
2019-01-29T10:42:06.010Z,29.53
2019-01-29T10:44:36.261Z,36.73
2019-01-29T10:47:06.252Z,38.00
2019-01-29T10:49:36.175Z,38.53
2019-01-29T10:52:08.204Z,38.50
2019-01-29T10:54:37.919Z,38.77
2019-01-29T10:57:10.118Z,37.90
2019-01-29T10:59:39.546Z,38.13
2019-01-29T11:02:09.597Z,37.63
2019-01-29T11:04:39.467Z,37.17
2019-01-29T11:07:09.393Z,37.53
2019-01-29T11:09:40.306Z,37.93
2019-01-29T11:12:11.283Z,38.83
2019-01-29T11:14:41.554Z,38.57
2019-01-29T11:17:12.106Z,39.57
2019-01-29T11:19:41.849Z,39.93
2019-01-29T11:22:12.832Z,37.50
2019-01-29T11:24:42.656Z,39.87
2019-01-29T11:27:12.626Z,40.27
2019-01-29T11:29:42.326Z,38.37
2019-01-29T11:32:11.958Z,38.70
2019-01-29T11:34:41.818Z,37.47
2019-01-29T11:37:12.162Z,39.27
2019-01-29T11:39:41.987Z,36.70
2019-01-29T11:42:11.658Z,35.70
2019-01-29T11:44:41.546Z,35.50
2019-01-29T11:47:11.269Z,35.37
2019-01-29T11:49:40.985Z,34.77
2019-01-29T11:52:11.337Z,35.73
2019-01-29T11:54:41.481Z,35.27
2019-01-29T11:57:12.945Z,35.13
2019-01-29T11:59:43.367Z,36.50
2019-01-29T12:02:13.633Z,38.40
2019-01-29T12:04:44.315Z,37.47
2019-01-29T12:07:15.393Z,37.93
2019-01-29T12:09:46.760Z,38.37
2019-01-29T12:12:19.076Z,38.10
2019-01-29T12:14:48.837Z,37.50
2019-01-29T12:17:18.579Z,36.93
2019-01-29T12:19:48.537Z,37.77
2019-01-29T12:22:18.694Z,38.03
2019-01-29T12:24:48.380Z,39.50
2019-01-29T12:27:18.087Z,39.43
2019-01-29T12:29:47.836Z,38.13
2019-01-29T12:32:17.593Z,39.03
2019-01-29T12:34:47.391Z,39.60
2019-01-29T12:37:19.943Z,37.77
2019-01-29T12:39:49.680Z,37.70
2019-01-29T12:42:19.935Z,38.80
2019-01-29T12:44:49.609Z,38.27
2019-01-29T12:47:20.247Z,38.20
2019-01-29T12:50:19.658Z,38.77
2019-01-29T12:53:19.760Z,37.77
2019-01-29T12:55:51.197Z,37.37
2019-01-29T12:58:21.268Z,36.80
2019-01-29T13:01:08.191Z,36.10
2019-01-29T13:03:47.129Z,35.50
2019-01-29T13:06:17.265Z,34.17
2019-01-29T13:08:47.931Z,37.13
2019-01-29T13:11:31.965Z,37.17
2019-01-29T13:14:03.551Z,34.07
2019-01-29T13:16:35.602Z,33.70
2019-01-29T13:19:05.706Z,31.73
2019-01-29T13:21:35.647Z,30.43
2019-01-29T13:24:11.040Z,31.93
2019-01-29T13:26:40.997Z,32.53
2019-01-29T13:29:15.242Z,34.60
2019-01-29T13:31:47.411Z,35.37
2019-01-29T13:34:20.123Z,36.83
2019-01-29T13:36:51.364Z,36.23
2019-01-29T13:39:25.369Z,35.07
2019-01-29T13:41:59.002Z,36.63
2019-01-29T13:44:28.652Z,36.73
2019-01-29T13:46:58.406Z,36.00
2019-01-29T13:49:28.033Z,37.87
2019-01-29T13:51:57.928Z,36.43
2019-01-29T13:54:27.557Z,37.47
2019-01-29T13:56:57.304Z,37.33
2019-01-29T13:59:27.024Z,36.20
2019-01-29T14:01:57.793Z,36.53
2019-01-29T14:04:27.435Z,37.27
2019-01-29T14:06:57.263Z,36.53
2019-01-29T14:09:28.554Z,37.43
2019-01-29T14:11:58.433Z,35.57
2019-01-29T14:14:29.753Z,36.90
2019-01-29T14:16:59.530Z,37.50
2019-01-29T14:19:29.178Z,37.27
2019-01-29T14:21:58.968Z,37.90
2019-01-29T14:24:28.565Z,37.23
2019-01-29T14:26:58.343Z,37.23
2019-01-29T14:29:29.454Z,39.10
2019-01-29T14:31:59.048Z,38.70
2019-01-29T14:34:28.646Z,39.13
2019-01-29T14:36:58.311Z,38.43
2019-01-29T14:39:41.687Z,39.73
2019-01-29T14:42:11.369Z,36.53
2019-01-29T14:44:45.160Z,38.37
2019-01-29T14:47:14.794Z,37.70
2019-01-29T14:49:44.447Z,38.40
2019-01-29T14:52:14.567Z,34.73
2019-01-29T14:54:44.195Z,35.53
2019-01-29T14:57:14.338Z,31.40
2019-01-29T14:59:43.972Z,31.13
2019-01-29T15:02:13.607Z,28.93
2019-01-29T15:04:43.343Z,25.93
2019-01-29T15:07:12.978Z,27.50
2019-01-29T15:09:42.611Z,26.47
2019-01-29T15:12:12.281Z,29.53
2019-01-29T15:14:41.906Z,29.97
2019-01-29T15:17:31.721Z,33.03
2019-01-29T15:20:01.347Z,32.63
2019-01-29T15:22:31.099Z,32.90
2019-01-29T15:25:01.006Z,33.27
2019-01-29T15:27:30.694Z,32.20
2019-01-29T15:30:00.315Z,32.30
2019-01-29T15:32:30.088Z,30.37
2019-01-29T15:34:59.683Z,31.13
2019-01-29T15:37:29.309Z,31.83
2019-01-29T15:39:59.010Z,31.90
2019-01-29T15:42:28.672Z,34.53
2019-01-29T15:44:58.969Z,34.90
2019-01-29T15:47:28.832Z,36.97
2019-01-29T15:49:58.466Z,31.93
2019-01-29T15:52:28.221Z,31.67
2019-01-29T15:54:57.953Z,32.00
2019-01-29T15:57:27.724Z,64.87
2019-01-29T15:59:57.457Z,52.63
2019-01-29T16:02:27.146Z,57.97
2019-01-29T16:04:56.757Z,55.00
2019-01-29T16:07:26.586Z,44.80
2019-01-29T16:09:56.246Z,44.77
2019-01-29T16:12:26.094Z,41.67
2019-01-29T16:14:55.774Z,42.63
2019-01-29T16:17:25.458Z,45.23
2019-01-29T16:19:55.098Z,47.23
2019-01-29T16:22:24.731Z,48.93
2019-01-29T16:24:54.533Z,55.13
2019-01-29T16:27:24.245Z,56.93
2019-01-29T16:29:53.923Z,53.90
2019-01-29T16:32:23.599Z,45.97
2019-01-29T16:34:53.220Z,44.97
2019-01-29T16:37:22.870Z,40.47
2019-01-29T16:39:52.669Z,43.93
2019-01-29T16:42:22.322Z,37.73
2019-01-29T16:44:52.006Z,37.27
2019-01-29T16:47:21.882Z,36.93
2019-01-29T16:49:51.480Z,43.27
2019-01-29T16:52:21.103Z,40.13
2019-01-29T16:54:50.780Z,40.53
2019-01-29T16:57:20.387Z,37.50
2019-01-29T16:59:50.407Z,41.60
2019-01-29T17:02:20.159Z,42.37
2019-01-29T17:04:49.851Z,41.50
2019-01-29T17:07:19.568Z,41.87
2019-01-29T17:09:49.338Z,42.10
2019-01-29T17:12:18.949Z,45.03
2019-01-29T17:14:49.844Z,47.73
2019-01-29T17:17:19.810Z,51.10
2019-01-29T17:19:49.481Z,55.63
2019-01-29T17:22:19.117Z,56.10
2019-01-29T17:24:48.762Z,55.03
2019-01-29T17:27:18.389Z,53.47
2019-01-29T17:29:48.038Z,54.53
2019-01-29T17:32:17.725Z,56.20
2019-01-29T17:34:47.330Z,57.07
2019-01-29T17:37:16.926Z,60.90
2019-01-29T17:39:46.593Z,60.33
2019-01-29T17:42:16.280Z,51.80
2019-01-29T17:44:45.908Z,53.60
2019-01-29T17:47:15.715Z,49.23
2019-01-29T17:49:45.376Z,42.10
2019-01-29T17:52:15.005Z,41.20
2019-01-29T17:54:44.717Z,40.57
2019-01-29T17:57:14.317Z,43.43
2019-01-29T17:59:43.971Z,52.90
2019-01-29T18:02:13.837Z,49.33
2019-01-29T18:04:43.557Z,54.37
2019-01-29T18:07:13.189Z,58.60
2019-01-29T18:09:42.926Z,59.63
2019-01-29T18:12:12.585Z,58.70
2019-01-29T18:14:42.251Z,54.30
2019-01-29T18:17:11.999Z,52.70
2019-01-29T18:19:41.649Z,57.07
2019-01-29T18:22:12.275Z,61.07
2019-01-29T18:24:41.964Z,51.07
2019-01-29T18:27:11.612Z,47.63
2019-01-29T18:29:41.286Z,49.33
2019-01-29T18:32:10.984Z,48.20
2019-01-29T18:34:40.589Z,51.40
2019-01-29T18:37:10.221Z,48.57
2019-01-29T18:39:39.900Z,49.77
2019-01-29T18:42:09.513Z,48.80
2019-01-29T18:44:39.108Z,50.90
2019-01-29T18:47:08.876Z,52.87
2019-01-29T18:49:38.496Z,51.17
2019-01-29T18:52:08.130Z,53.53
2019-01-29T18:54:37.858Z,57.13
2019-01-29T18:57:07.603Z,52.63
2019-01-29T18:59:37.268Z,50.10
2019-01-29T19:02:07.193Z,48.23
2019-01-29T19:04:36.865Z,46.20
2019-01-29T19:07:06.502Z,44.37
2019-01-29T19:09:36.182Z,52.53
2019-01-29T19:12:05.913Z,60.37
2019-01-29T19:14:35.607Z,59.70
2019-01-29T19:17:07.055Z,59.70
2019-01-29T19:19:36.666Z,59.07
2019-01-29T19:22:06.344Z,53.73
2019-01-29T19:24:36.003Z,48.40
2019-01-29T19:27:05.755Z,49.13
2019-01-29T19:29:35.373Z,51.63
2019-01-29T19:32:05.317Z,69.40
2019-01-29T19:34:35.059Z,71.10
2019-01-29T19:37:04.755Z,54.57
2019-01-29T19:39:34.478Z,51.77
2019-01-29T19:42:04.101Z,50.00
2019-01-29T19:44:33.777Z,43.27
2019-01-29T19:47:03.475Z,55.27
2019-01-29T19:49:33.080Z,53.80
2019-01-29T19:52:02.694Z,55.03
2019-01-29T19:54:32.448Z,55.23
2019-01-29T19:57:02.163Z,49.43
2019-01-29T19:59:31.815Z,51.03
2019-01-29T20:02:01.510Z,50.43
2019-01-29T20:04:31.111Z,50.73
2019-01-29T20:07:00.737Z,51.77
2019-01-29T20:09:30.413Z,49.07
2019-01-29T20:12:00.186Z,46.27
2019-01-29T20:14:29.859Z,43.00
2019-01-29T20:16:59.680Z,41.33
2019-01-29T20:19:29.391Z,39.43
2019-01-29T20:21:59.045Z,39.73
2019-01-29T20:24:28.734Z,37.50
2019-01-29T20:26:58.322Z,38.70
2019-01-29T20:29:27.957Z,38.57
2019-01-29T20:31:57.714Z,37.93
2019-01-29T20:34:27.340Z,39.40
2019-01-29T20:36:57.145Z,38.53
2019-01-29T20:39:34.790Z,39.10
2019-01-29T20:41:58.164Z,38.47
2019-01-29T20:44:27.793Z,42.63
2019-01-29T20:46:57.583Z,45.63
2019-01-29T20:49:27.207Z,47.03
2019-01-29T20:51:56.871Z,43.83
2019-01-29T20:54:29.635Z,42.17
2019-01-29T20:56:59.243Z,42.40
2019-01-29T20:59:55.898Z,40.57
2019-01-29T21:02:25.058Z,38.93
2019-01-29T21:04:56.573Z,36.77
2019-01-29T21:07:26.458Z,37.93
2019-01-29T21:09:56.060Z,37.83
2019-01-29T21:12:28.542Z,39.47
2019-01-29T21:14:58.247Z,42.60
2019-01-29T21:17:27.862Z,40.80
2019-01-29T21:19:57.458Z,41.57
2019-01-29T21:22:27.830Z,44.10
2019-01-29T21:24:57.420Z,47.83
2019-01-29T21:27:27.009Z,53.30
2019-01-29T21:29:56.661Z,60.33
2019-01-29T21:32:26.579Z,50.47
2019-01-29T21:34:56.204Z,50.83
2019-01-29T21:37:25.930Z,52.50
2019-01-29T21:39:55.512Z,55.13
2019-01-29T21:42:25.101Z,55.43
2019-01-29T21:44:54.868Z,55.53
2019-01-29T21:47:24.475Z,55.30
2019-01-29T21:49:54.071Z,56.07
2019-01-29T21:52:23.727Z,56.93
2019-01-29T21:54:53.333Z,55.60
2019-01-29T21:57:22.926Z,60.73
2019-01-29T21:59:52.748Z,62.13
2019-01-29T22:02:22.346Z,59.57
2019-01-29T22:04:51.987Z,49.33
2019-01-29T22:07:21.622Z,50.47
2019-01-29T22:09:51.236Z,45.40
2019-01-29T22:12:20.954Z,52.50
2019-01-29T22:14:50.697Z,54.77
2019-01-29T22:17:20.294Z,51.90
2019-01-29T22:19:49.891Z,51.63
2019-01-29T22:22:19.552Z,52.93
2019-01-29T22:24:49.148Z,50.40
2019-01-29T22:27:18.739Z,50.47
2019-01-29T22:29:48.443Z,55.07
2019-01-29T22:32:18.028Z,49.10
2019-01-29T22:34:47.598Z,49.53
2019-01-29T22:37:17.240Z,45.37
2019-01-29T22:39:46.869Z,47.73
2019-01-29T22:42:16.446Z,48.83
2019-01-29T22:44:46.080Z,48.60
2019-01-29T22:47:15.666Z,49.60
2019-01-29T22:49:45.232Z,49.53
2019-01-29T22:52:14.959Z,47.83
2019-01-29T22:54:44.529Z,49.47
2019-01-29T22:57:14.089Z,50.97
2019-01-29T22:59:43.779Z,49.40
2019-01-29T23:02:13.347Z,50.80
2019-01-29T23:04:46.746Z,50.73
2019-01-29T23:07:27.855Z,48.87
2019-01-29T23:09:57.484Z,48.23
2019-01-29T23:12:27.356Z,44.53
2019-01-29T23:14:56.959Z,44.60
2019-01-29T23:17:26.723Z,46.93
2019-01-29T23:19:56.273Z,44.40
2019-01-29T23:22:46.293Z,44.63
2019-01-29T23:25:15.922Z,45.20
2019-01-29T23:27:45.523Z,44.60
2019-01-29T23:30:16.893Z,43.03
2019-01-29T23:32:46.497Z,43.43
2019-01-29T23:35:16.449Z,42.43
2019-01-29T23:37:46.169Z,40.03
2019-01-29T23:40:16.181Z,41.33
2019-01-29T23:42:45.881Z,42.43
2019-01-29T23:45:15.806Z,40.23
2019-01-29T23:47:45.450Z,38.33
2019-01-29T23:50:15.247Z,38.33
2019-01-29T23:52:44.905Z,37.90
2019-01-29T23:55:14.803Z,38.63
2019-01-29T23:57:44.425Z,36.90
